sensor_id;sensor_type;location;lat;lon;timestamp;P1;durP1;ratioP1;P2;durP2;ratioP2
24157;SDS011;12316;50.904;4.200;2024-02-04T00:00:43;20.90;;;8.90;;
24157;SDS011;12316;50.904;4.200;2024-02-04T00:03:09;15.85;;;8.73;;
24157;SDS011;12316;50.904;4.200;2024-02-04T00:05:34;16.52;;;8.55;;
24157;SDS011;12316;50.904;4.200;2024-02-04T00:08:01;15.30;;;8.52;;
24157;SDS011;12316;50.904;4.200;2024-02-04T00:10:27;16.83;;;9.10;;
24157;SDS011;12316;50.904;4.200;2024-02-04T00:12:53;17.33;;;8.48;;
24157;SDS011;12316;50.904;4.200;2024-02-04T00:15:19;17.02;;;8.60;;
24157;SDS011;12316;50.904;4.200;2024-02-04T00:17:44;14.38;;;8.23;;
24157;SDS011;12316;50.904;4.200;2024-02-04T00:20:10;19.40;;;8.35;;
24157;SDS011;12316;50.904;4.200;2024-02-04T00:22:36;21.23;;;8.60;;
24157;SDS011;12316;50.904;4.200;2024-02-04T00:25:02;15.75;;;7.93;;
24157;SDS011;12316;50.904;4.200;2024-02-04T00:27:33;20.58;;;8.00;;
24157;SDS011;12316;50.904;4.200;2024-02-04T00:29:59;13.18;;;7.80;;
24157;SDS011;12316;50.904;4.200;2024-02-04T00:32:25;17.40;;;7.93;;
24157;SDS011;12316;50.904;4.200;2024-02-04T00:34:52;11.27;;;6.78;;
24157;SDS011;12316;50.904;4.200;2024-02-04T00:37:18;11.40;;;7.13;;
24157;SDS011;12316;50.904;4.200;2024-02-04T00:39:44;16.45;;;7.03;;
24157;SDS011;12316;50.904;4.200;2024-02-04T00:42:10;13.43;;;7.50;;
24157;SDS011;12316;50.904;4.200;2024-02-04T00:44:36;17.52;;;7.43;;
24157;SDS011;12316;50.904;4.200;2024-02-04T00:47:01;17.75;;;6.78;;
24157;SDS011;12316;50.904;4.200;2024-02-04T00:49:27;13.18;;;7.70;;
24157;SDS011;12316;50.904;4.200;2024-02-04T00:51:53;14.15;;;7.72;;
24157;SDS011;12316;50.904;4.200;2024-02-04T00:54:19;17.48;;;8.10;;
24157;SDS011;12316;50.904;4.200;2024-02-04T00:56:45;14.18;;;8.23;;
24157;SDS011;12316;50.904;4.200;2024-02-04T00:59:11;16.60;;;8.05;;
24157;SDS011;12316;50.904;4.200;2024-02-04T01:01:37;15.82;;;7.93;;
24157;SDS011;12316;50.904;4.200;2024-02-04T01:04:03;15.20;;;8.27;;
24157;SDS011;12316;50.904;4.200;2024-02-04T01:06:30;17.95;;;8.85;;
24157;SDS011;12316;50.904;4.200;2024-02-04T01:08:56;21.13;;;9.90;;
24157;SDS011;12316;50.904;4.200;2024-02-04T01:11:22;15.45;;;9.15;;
24157;SDS011;12316;50.904;4.200;2024-02-04T01:13:47;20.38;;;9.55;;
24157;SDS011;12316;50.904;4.200;2024-02-04T01:16:13;18.00;;;9.68;;
24157;SDS011;12316;50.904;4.200;2024-02-04T01:18:39;18.65;;;10.90;;
24157;SDS011;12316;50.904;4.200;2024-02-04T01:21:04;19.70;;;11.40;;
24157;SDS011;12316;50.904;4.200;2024-02-04T01:23:30;16.33;;;10.43;;
24157;SDS011;12316;50.904;4.200;2024-02-04T01:25:57;20.23;;;10.95;;
24157;SDS011;12316;50.904;4.200;2024-02-04T01:28:23;20.20;;;11.43;;
24157;SDS011;12316;50.904;4.200;2024-02-04T01:30:48;18.73;;;10.65;;
24157;SDS011;12316;50.904;4.200;2024-02-04T01:33:15;24.27;;;11.40;;
24157;SDS011;12316;50.904;4.200;2024-02-04T01:35:41;20.38;;;11.40;;
24157;SDS011;12316;50.904;4.200;2024-02-04T01:38:07;19.77;;;11.55;;
24157;SDS011;12316;50.904;4.200;2024-02-04T01:40:32;21.95;;;12.30;;
24157;SDS011;12316;50.904;4.200;2024-02-04T01:42:58;24.08;;;12.77;;
24157;SDS011;12316;50.904;4.200;2024-02-04T01:45:23;20.85;;;12.55;;
24157;SDS011;12316;50.904;4.200;2024-02-04T01:47:50;25.20;;;13.70;;
24157;SDS011;12316;50.904;4.200;2024-02-04T01:50:15;21.85;;;13.52;;
24157;SDS011;12316;50.904;4.200;2024-02-04T01:52:42;30.92;;;13.48;;
24157;SDS011;12316;50.904;4.200;2024-02-04T01:55:10;24.55;;;14.00;;
24157;SDS011;12316;50.904;4.200;2024-02-04T01:57:36;25.33;;;14.93;;
24157;SDS011;12316;50.904;4.200;2024-02-04T02:00:03;24.92;;;14.93;;
24157;SDS011;12316;50.904;4.200;2024-02-04T02:02:29;25.80;;;14.90;;
24157;SDS011;12316;50.904;4.200;2024-02-04T02:04:58;26.95;;;14.65;;
24157;SDS011;12316;50.904;4.200;2024-02-04T02:07:24;29.77;;;15.65;;
24157;SDS011;12316;50.904;4.200;2024-02-04T02:09:52;30.00;;;15.95;;
24157;SDS011;12316;50.904;4.200;2024-02-04T02:12:34;27.75;;;14.88;;
24157;SDS011;12316;50.904;4.200;2024-02-04T02:15:15;29.08;;;14.00;;
24157;SDS011;12316;50.904;4.200;2024-02-04T02:22:57;29.35;;;15.65;;
24157;SDS011;12316;50.904;4.200;2024-02-04T02:25:28;25.80;;;15.68;;
24157;SDS011;12316;50.904;4.200;2024-02-04T02:27:55;30.85;;;16.08;;
24157;SDS011;12316;50.904;4.200;2024-02-04T02:30:21;28.55;;;16.05;;
24157;SDS011;12316;50.904;4.200;2024-02-04T02:32:47;35.42;;;17.00;;
24157;SDS011;12316;50.904;4.200;2024-02-04T02:35:14;32.13;;;15.70;;
24157;SDS011;12316;50.904;4.200;2024-02-04T02:40:36;31.77;;;16.27;;
24157;SDS011;12316;50.904;4.200;2024-02-04T02:43:09;31.65;;;15.63;;
24157;SDS011;12316;50.904;4.200;2024-02-04T02:45:41;28.75;;;15.23;;
24157;SDS011;12316;50.904;4.200;2024-02-04T02:48:08;30.75;;;15.90;;
24157;SDS011;12316;50.904;4.200;2024-02-04T02:50:35;32.83;;;16.67;;
24157;SDS011;12316;50.904;4.200;2024-02-04T02:53:01;34.70;;;17.65;;
24157;SDS011;12316;50.904;4.200;2024-02-04T02:55:27;35.95;;;17.83;;
24157;SDS011;12316;50.904;4.200;2024-02-04T02:57:53;40.15;;;18.42;;
24157;SDS011;12316;50.904;4.200;2024-02-04T03:00:18;36.22;;;18.85;;
24157;SDS011;12316;50.904;4.200;2024-02-04T03:02:44;38.90;;;19.08;;
24157;SDS011;12316;50.904;4.200;2024-02-04T03:05:10;38.28;;;17.85;;
24157;SDS011;12316;50.904;4.200;2024-02-04T03:07:36;35.95;;;17.75;;
24157;SDS011;12316;50.904;4.200;2024-02-04T03:10:02;34.10;;;18.17;;
24157;SDS011;12316;50.904;4.200;2024-02-04T03:12:28;35.42;;;17.80;;
24157;SDS011;12316;50.904;4.200;2024-02-04T03:14:54;33.95;;;17.27;;
24157;SDS011;12316;50.904;4.200;2024-02-04T03:17:19;35.38;;;17.85;;
24157;SDS011;12316;50.904;4.200;2024-02-04T03:19:49;32.70;;;17.15;;
24157;SDS011;12316;50.904;4.200;2024-02-04T03:22:19;30.63;;;15.90;;
24157;SDS011;12316;50.904;4.200;2024-02-04T03:24:46;29.48;;;16.17;;
24157;SDS011;12316;50.904;4.200;2024-02-04T03:27:12;29.55;;;15.75;;
24157;SDS011;12316;50.904;4.200;2024-02-04T03:29:38;32.85;;;15.02;;
24157;SDS011;12316;50.904;4.200;2024-02-04T03:32:04;32.22;;;15.85;;
24157;SDS011;12316;50.904;4.200;2024-02-04T03:34:30;31.02;;;16.88;;
24157;SDS011;12316;50.904;4.200;2024-02-04T03:36:56;33.30;;;15.98;;
24157;SDS011;12316;50.904;4.200;2024-02-04T03:39:21;30.85;;;14.70;;
24157;SDS011;12316;50.904;4.200;2024-02-04T03:41:47;32.80;;;15.75;;
24157;SDS011;12316;50.904;4.200;2024-02-04T03:44:12;28.60;;;15.05;;
24157;SDS011;12316;50.904;4.200;2024-02-04T03:46:38;26.60;;;14.52;;
24157;SDS011;12316;50.904;4.200;2024-02-04T03:49:05;27.63;;;14.50;;
24157;SDS011;12316;50.904;4.200;2024-02-04T03:51:34;32.05;;;14.10;;
24157;SDS011;12316;50.904;4.200;2024-02-04T03:53:59;27.40;;;13.57;;
24157;SDS011;12316;50.904;4.200;2024-02-04T03:56:25;23.40;;;12.80;;
24157;SDS011;12316;50.904;4.200;2024-02-04T03:58:52;26.63;;;13.93;;
24157;SDS011;12316;50.904;4.200;2024-02-04T04:01:17;25.45;;;13.20;;
24157;SDS011;12316;50.904;4.200;2024-02-04T04:03:43;24.67;;;12.50;;
24157;SDS011;12316;50.904;4.200;2024-02-04T04:06:09;26.08;;;12.27;;
24157;SDS011;12316;50.904;4.200;2024-02-04T04:08:36;26.00;;;12.35;;
24157;SDS011;12316;50.904;4.200;2024-02-04T04:11:02;24.92;;;12.10;;
24157;SDS011;12316;50.904;4.200;2024-02-04T04:13:27;21.75;;;11.25;;
24157;SDS011;12316;50.904;4.200;2024-02-04T04:15:53;23.98;;;11.80;;
24157;SDS011;12316;50.904;4.200;2024-02-04T04:18:19;21.52;;;11.40;;
24157;SDS011;12316;50.904;4.200;2024-02-04T04:20:45;20.85;;;11.02;;
24157;SDS011;12316;50.904;4.200;2024-02-04T04:23:11;23.10;;;11.18;;
24157;SDS011;12316;50.904;4.200;2024-02-04T04:25:37;25.33;;;11.68;;
24157;SDS011;12316;50.904;4.200;2024-02-04T04:28:03;25.33;;;11.90;;
24157;SDS011;12316;50.904;4.200;2024-02-04T04:30:29;23.70;;;11.65;;
24157;SDS011;12316;50.904;4.200;2024-02-04T04:32:55;27.30;;;12.00;;
24157;SDS011;12316;50.904;4.200;2024-02-04T04:35:21;23.30;;;11.63;;
24157;SDS011;12316;50.904;4.200;2024-02-04T04:37:47;20.48;;;11.82;;
24157;SDS011;12316;50.904;4.200;2024-02-04T04:40:12;20.75;;;11.57;;
24157;SDS011;12316;50.904;4.200;2024-02-04T04:42:38;27.17;;;11.85;;
24157;SDS011;12316;50.904;4.200;2024-02-04T04:45:04;22.35;;;11.35;;
24157;SDS011;12316;50.904;4.200;2024-02-04T04:47:30;21.83;;;11.40;;
24157;SDS011;12316;50.904;4.200;2024-02-04T04:49:55;24.60;;;12.38;;
24157;SDS011;12316;50.904;4.200;2024-02-04T04:52:21;24.63;;;11.80;;
24157;SDS011;12316;50.904;4.200;2024-02-04T04:54:47;25.35;;;12.57;;
24157;SDS011;12316;50.904;4.200;2024-02-04T04:57:13;23.10;;;11.32;;
24157;SDS011;12316;50.904;4.200;2024-02-04T04:59:39;28.58;;;12.00;;
24157;SDS011;12316;50.904;4.200;2024-02-04T05:02:05;24.13;;;12.60;;
24157;SDS011;12316;50.904;4.200;2024-02-04T05:04:30;21.00;;;11.00;;
24157;SDS011;12316;50.904;4.200;2024-02-04T05:06:56;25.17;;;11.57;;
24157;SDS011;12316;50.904;4.200;2024-02-04T05:09:22;23.27;;;11.77;;
24157;SDS011;12316;50.904;4.200;2024-02-04T05:11:47;26.88;;;11.48;;
24157;SDS011;12316;50.904;4.200;2024-02-04T05:14:13;24.15;;;11.02;;
24157;SDS011;12316;50.904;4.200;2024-02-04T05:16:39;25.23;;;11.25;;
24157;SDS011;12316;50.904;4.200;2024-02-04T05:19:04;29.35;;;11.40;;
24157;SDS011;12316;50.904;4.200;2024-02-04T05:21:31;24.73;;;11.15;;
24157;SDS011;12316;50.904;4.200;2024-02-04T05:23:56;25.67;;;10.98;;
24157;SDS011;12316;50.904;4.200;2024-02-04T05:26:22;25.30;;;10.85;;
24157;SDS011;12316;50.904;4.200;2024-02-04T05:28:49;25.27;;;11.30;;
24157;SDS011;12316;50.904;4.200;2024-02-04T05:31:14;25.73;;;11.93;;
24157;SDS011;12316;50.904;4.200;2024-02-04T05:33:40;25.50;;;11.98;;
24157;SDS011;12316;50.904;4.200;2024-02-04T05:36:06;28.00;;;12.63;;
24157;SDS011;12316;50.904;4.200;2024-02-04T05:38:32;30.90;;;13.40;;
24157;SDS011;12316;50.904;4.200;2024-02-04T05:40:57;32.53;;;13.90;;
24157;SDS011;12316;50.904;4.200;2024-02-04T05:43:23;31.58;;;14.73;;
24157;SDS011;12316;50.904;4.200;2024-02-04T05:45:49;30.95;;;14.27;;
24157;SDS011;12316;50.904;4.200;2024-02-04T05:48:14;36.35;;;14.82;;
24157;SDS011;12316;50.904;4.200;2024-02-04T05:50:40;34.72;;;14.90;;
24157;SDS011;12316;50.904;4.200;2024-02-04T05:53:06;42.60;;;15.88;;
24157;SDS011;12316;50.904;4.200;2024-02-04T05:55:32;38.70;;;16.02;;
24157;SDS011;12316;50.904;4.200;2024-02-04T05:57:58;35.28;;;15.23;;
24157;SDS011;12316;50.904;4.200;2024-02-04T06:00:23;32.38;;;15.77;;
24157;SDS011;12316;50.904;4.200;2024-02-04T06:02:49;37.78;;;16.17;;
24157;SDS011;12316;50.904;4.200;2024-02-04T06:05:15;34.25;;;15.65;;
24157;SDS011;12316;50.904;4.200;2024-02-04T06:07:42;40.95;;;16.50;;
24157;SDS011;12316;50.904;4.200;2024-02-04T06:10:08;33.22;;;14.60;;
24157;SDS011;12316;50.904;4.200;2024-02-04T06:12:34;36.00;;;15.30;;
24157;SDS011;12316;50.904;4.200;2024-02-04T06:15:00;37.90;;;15.65;;
24157;SDS011;12316;50.904;4.200;2024-02-04T06:17:26;33.58;;;14.52;;
24157;SDS011;12316;50.904;4.200;2024-02-04T06:19:51;34.05;;;14.32;;
24157;SDS011;12316;50.904;4.200;2024-02-04T06:22:17;35.70;;;13.85;;
24157;SDS011;12316;50.904;4.200;2024-02-04T06:24:43;28.48;;;13.57;;
24157;SDS011;12316;50.904;4.200;2024-02-04T06:27:08;31.92;;;13.80;;
24157;SDS011;12316;50.904;4.200;2024-02-04T06:29:35;30.25;;;13.60;;
24157;SDS011;12316;50.904;4.200;2024-02-04T06:32:02;27.98;;;12.68;;
24157;SDS011;12316;50.904;4.200;2024-02-04T06:34:28;33.05;;;13.38;;
24157;SDS011;12316;50.904;4.200;2024-02-04T06:36:53;25.08;;;11.93;;
24157;SDS011;12316;50.904;4.200;2024-02-04T06:39:19;25.45;;;12.13;;
24157;SDS011;12316;50.904;4.200;2024-02-04T06:41:44;24.77;;;12.45;;
24157;SDS011;12316;50.904;4.200;2024-02-04T06:44:11;26.13;;;11.70;;
24157;SDS011;12316;50.904;4.200;2024-02-04T06:46:37;29.70;;;11.90;;
24157;SDS011;12316;50.904;4.200;2024-02-04T06:49:02;27.38;;;11.82;;
24157;SDS011;12316;50.904;4.200;2024-02-04T06:51:29;25.30;;;12.15;;
24157;SDS011;12316;50.904;4.200;2024-02-04T06:53:56;27.17;;;12.88;;
24157;SDS011;12316;50.904;4.200;2024-02-04T06:56:21;34.15;;;13.68;;
24157;SDS011;12316;50.904;4.200;2024-02-04T06:58:47;30.20;;;13.55;;
24157;SDS011;12316;50.904;4.200;2024-02-04T07:01:13;32.72;;;13.23;;
24157;SDS011;12316;50.904;4.200;2024-02-04T07:03:39;33.05;;;13.95;;
24157;SDS011;12316;50.904;4.200;2024-02-04T07:06:05;33.65;;;15.40;;
24157;SDS011;12316;50.904;4.200;2024-02-04T07:08:31;32.25;;;15.52;;
24157;SDS011;12316;50.904;4.200;2024-02-04T07:10:56;32.80;;;16.08;;
24157;SDS011;12316;50.904;4.200;2024-02-04T07:13:22;34.85;;;15.57;;
24157;SDS011;12316;50.904;4.200;2024-02-04T07:15:48;31.98;;;16.10;;
24157;SDS011;12316;50.904;4.200;2024-02-04T07:18:13;31.80;;;15.98;;
24157;SDS011;12316;50.904;4.200;2024-02-04T07:20:39;35.00;;;16.85;;
24157;SDS011;12316;50.904;4.200;2024-02-04T07:23:06;36.25;;;17.17;;
24157;SDS011;12316;50.904;4.200;2024-02-04T07:25:31;37.13;;;17.50;;
24157;SDS011;12316;50.904;4.200;2024-02-04T07:27:59;36.20;;;17.40;;
24157;SDS011;12316;50.904;4.200;2024-02-04T07:30:25;34.63;;;16.88;;
24157;SDS011;12316;50.904;4.200;2024-02-04T07:32:50;34.42;;;17.85;;
24157;SDS011;12316;50.904;4.200;2024-02-04T07:35:16;41.63;;;18.77;;
24157;SDS011;12316;50.904;4.200;2024-02-04T07:37:42;37.08;;;18.27;;
24157;SDS011;12316;50.904;4.200;2024-02-04T07:40:08;36.90;;;16.80;;
24157;SDS011;12316;50.904;4.200;2024-02-04T07:42:33;36.35;;;16.50;;
24157;SDS011;12316;50.904;4.200;2024-02-04T07:44:59;34.53;;;17.10;;
24157;SDS011;12316;50.904;4.200;2024-02-04T07:47:26;27.23;;;16.48;;
24157;SDS011;12316;50.904;4.200;2024-02-04T07:49:52;28.10;;;14.75;;
24157;SDS011;12316;50.904;4.200;2024-02-04T07:52:17;26.38;;;14.27;;
24157;SDS011;12316;50.904;4.200;2024-02-04T07:54:43;27.15;;;13.63;;
24157;SDS011;12316;50.904;4.200;2024-02-04T07:57:09;20.40;;;12.77;;
24157;SDS011;12316;50.904;4.200;2024-02-04T07:59:35;24.67;;;13.52;;
24157;SDS011;12316;50.904;4.200;2024-02-04T08:02:01;21.15;;;12.35;;
24157;SDS011;12316;50.904;4.200;2024-02-04T08:04:27;20.52;;;11.20;;
24157;SDS011;12316;50.904;4.200;2024-02-04T08:06:53;23.38;;;10.75;;
24157;SDS011;12316;50.904;4.200;2024-02-04T08:09:19;16.02;;;9.40;;
24157;SDS011;12316;50.904;4.200;2024-02-04T08:11:45;15.55;;;8.55;;
24157;SDS011;12316;50.904;4.200;2024-02-04T08:14:12;16.13;;;8.85;;
24157;SDS011;12316;50.904;4.200;2024-02-04T08:16:39;22.50;;;9.25;;
24157;SDS011;12316;50.904;4.200;2024-02-04T08:19:05;20.30;;;8.77;;
24157;SDS011;12316;50.904;4.200;2024-02-04T08:21:31;18.08;;;8.38;;
24157;SDS011;12316;50.904;4.200;2024-02-04T08:23:57;16.08;;;8.57;;
24157;SDS011;12316;50.904;4.200;2024-02-04T08:26:23;15.32;;;8.57;;
24157;SDS011;12316;50.904;4.200;2024-02-04T08:28:49;15.13;;;8.60;;
24157;SDS011;12316;50.904;4.200;2024-02-04T08:31:15;16.05;;;8.10;;
24157;SDS011;12316;50.904;4.200;2024-02-04T08:33:41;16.48;;;8.75;;
24157;SDS011;12316;50.904;4.200;2024-02-04T08:36:07;16.67;;;9.20;;
24157;SDS011;12316;50.904;4.200;2024-02-04T08:38:35;17.27;;;9.40;;
24157;SDS011;12316;50.904;4.200;2024-02-04T08:41:02;17.27;;;9.77;;
24157;SDS011;12316;50.904;4.200;2024-02-04T08:43:29;15.23;;;9.23;;
24157;SDS011;12316;50.904;4.200;2024-02-04T08:45:54;17.90;;;9.55;;
24157;SDS011;12316;50.904;4.200;2024-02-04T08:48:20;15.90;;;9.43;;
24157;SDS011;12316;50.904;4.200;2024-02-04T08:50:46;17.00;;;9.05;;
24157;SDS011;12316;50.904;4.200;2024-02-04T08:53:11;16.70;;;9.50;;
24157;SDS011;12316;50.904;4.200;2024-02-04T08:55:37;18.50;;;9.20;;
24157;SDS011;12316;50.904;4.200;2024-02-04T08:58:03;16.95;;;9.20;;
24157;SDS011;12316;50.904;4.200;2024-02-04T09:00:29;15.18;;;8.80;;
24157;SDS011;12316;50.904;4.200;2024-02-04T09:02:54;12.77;;;8.27;;
24157;SDS011;12316;50.904;4.200;2024-02-04T09:05:20;13.90;;;8.45;;
24157;SDS011;12316;50.904;4.200;2024-02-04T09:07:47;15.77;;;7.78;;
24157;SDS011;12316;50.904;4.200;2024-02-04T09:10:13;12.10;;;6.90;;
24157;SDS011;12316;50.904;4.200;2024-02-04T09:12:38;13.40;;;6.88;;
24157;SDS011;12316;50.904;4.200;2024-02-04T09:15:04;13.80;;;6.95;;
24157;SDS011;12316;50.904;4.200;2024-02-04T09:17:31;12.75;;;6.22;;
24157;SDS011;12316;50.904;4.200;2024-02-04T09:19:58;10.48;;;5.65;;
24157;SDS011;12316;50.904;4.200;2024-02-04T09:22:24;9.73;;;5.22;;
24157;SDS011;12316;50.904;4.200;2024-02-04T09:24:50;10.30;;;5.35;;
24157;SDS011;12316;50.904;4.200;2024-02-04T09:27:16;11.80;;;5.38;;
24157;SDS011;12316;50.904;4.200;2024-02-04T09:29:41;13.07;;;4.90;;
24157;SDS011;12316;50.904;4.200;2024-02-04T09:32:07;12.77;;;5.13;;
24157;SDS011;12316;50.904;4.200;2024-02-04T09:34:33;12.13;;;5.10;;
24157;SDS011;12316;50.904;4.200;2024-02-04T09:36:58;10.45;;;5.10;;
24157;SDS011;12316;50.904;4.200;2024-02-04T09:39:25;11.23;;;4.40;;
24157;SDS011;12316;50.904;4.200;2024-02-04T09:41:51;10.35;;;4.70;;
24157;SDS011;12316;50.904;4.200;2024-02-04T09:44:19;12.18;;;4.68;;
24157;SDS011;12316;50.904;4.200;2024-02-04T09:46:46;10.00;;;4.22;;
24157;SDS011;12316;50.904;4.200;2024-02-04T09:49:12;11.68;;;4.50;;
24157;SDS011;12316;50.904;4.200;2024-02-04T09:51:39;9.88;;;4.30;;
24157;SDS011;12316;50.904;4.200;2024-02-04T09:54:05;8.20;;;4.13;;
24157;SDS011;12316;50.904;4.200;2024-02-04T09:56:34;14.35;;;4.32;;
24157;SDS011;12316;50.904;4.200;2024-02-04T09:59:02;11.57;;;4.32;;
24157;SDS011;12316;50.904;4.200;2024-02-04T10:01:29;9.68;;;4.28;;
24157;SDS011;12316;50.904;4.200;2024-02-04T10:03:56;10.15;;;4.18;;
24157;SDS011;12316;50.904;4.200;2024-02-04T10:06:22;11.52;;;4.15;;
24157;SDS011;12316;50.904;4.200;2024-02-04T10:08:49;9.18;;;3.90;;
24157;SDS011;12316;50.904;4.200;2024-02-04T10:11:15;14.75;;;4.57;;
24157;SDS011;12316;50.904;4.200;2024-02-04T10:13:47;10.57;;;4.55;;
24157;SDS011;12316;50.904;4.200;2024-02-04T10:16:15;8.95;;;4.30;;
24157;SDS011;12316;50.904;4.200;2024-02-04T10:18:45;9.75;;;4.32;;
24157;SDS011;12316;50.904;4.200;2024-02-04T10:21:17;8.60;;;4.40;;
24157;SDS011;12316;50.904;4.200;2024-02-04T10:23:45;8.95;;;4.90;;
24157;SDS011;12316;50.904;4.200;2024-02-04T10:26:11;7.88;;;4.93;;
24157;SDS011;12316;50.904;4.200;2024-02-04T10:28:37;10.60;;;4.70;;
24157;SDS011;12316;50.904;4.200;2024-02-04T10:31:03;8.45;;;4.78;;
24157;SDS011;12316;50.904;4.200;2024-02-04T10:33:31;8.93;;;4.70;;
24157;SDS011;12316;50.904;4.200;2024-02-04T10:35:57;9.52;;;4.65;;
24157;SDS011;12316;50.904;4.200;2024-02-04T10:38:23;15.57;;;4.88;;
24157;SDS011;12316;50.904;4.200;2024-02-04T10:40:50;8.27;;;4.63;;
24157;SDS011;12316;50.904;4.200;2024-02-04T10:43:19;8.40;;;4.35;;
24157;SDS011;12316;50.904;4.200;2024-02-04T10:45:46;9.98;;;4.65;;
24157;SDS011;12316;50.904;4.200;2024-02-04T10:48:14;10.43;;;4.28;;
24157;SDS011;12316;50.904;4.200;2024-02-04T10:50:44;10.07;;;4.32;;
24157;SDS011;12316;50.904;4.200;2024-02-04T10:53:11;7.32;;;3.95;;
24157;SDS011;12316;50.904;4.200;2024-02-04T10:55:40;8.15;;;4.32;;
24157;SDS011;12316;50.904;4.200;2024-02-04T10:58:10;11.68;;;3.63;;
24157;SDS011;12316;50.904;4.200;2024-02-04T11:00:38;7.18;;;3.50;;
24157;SDS011;12316;50.904;4.200;2024-02-04T11:03:05;7.13;;;3.35;;
24157;SDS011;12316;50.904;4.200;2024-02-04T11:05:32;9.30;;;3.40;;
24157;SDS011;12316;50.904;4.200;2024-02-04T11:08:01;7.40;;;3.33;;
24157;SDS011;12316;50.904;4.200;2024-02-04T11:10:28;6.45;;;3.40;;
24157;SDS011;12316;50.904;4.200;2024-02-04T11:12:56;7.40;;;3.03;;
24157;SDS011;12316;50.904;4.200;2024-02-04T11:15:24;5.47;;;2.92;;
24157;SDS011;12316;50.904;4.200;2024-02-04T11:26:24;5.72;;;2.80;;
24157;SDS011;12316;50.904;4.200;2024-02-04T11:28:51;9.57;;;3.50;;
24157;SDS011;12316;50.904;4.200;2024-02-04T11:31:17;9.43;;;3.78;;
24157;SDS011;12316;50.904;4.200;2024-02-04T11:33:44;7.78;;;3.30;;
24157;SDS011;12316;50.904;4.200;2024-02-04T11:36:14;6.57;;;2.72;;
24157;SDS011;12316;50.904;4.200;2024-02-04T11:38:40;6.57;;;2.80;;
24157;SDS011;12316;50.904;4.200;2024-02-04T11:41:06;4.30;;;2.35;;
24157;SDS011;12316;50.904;4.200;2024-02-04T11:43:33;9.95;;;2.90;;
24157;SDS011;12316;50.904;4.200;2024-02-04T11:46:00;5.50;;;2.47;;
24157;SDS011;12316;50.904;4.200;2024-02-04T11:48:29;5.35;;;2.47;;
24157;SDS011;12316;50.904;4.200;2024-02-04T11:50:57;6.68;;;2.60;;
24157;SDS011;12316;50.904;4.200;2024-02-04T11:53:25;6.15;;;2.38;;
24157;SDS011;12316;50.904;4.200;2024-02-04T11:55:54;5.30;;;2.53;;
24157;SDS011;12316;50.904;4.200;2024-02-04T11:58:19;8.38;;;2.60;;
24157;SDS011;12316;50.904;4.200;2024-02-04T12:00:45;8.13;;;2.50;;
24157;SDS011;12316;50.904;4.200;2024-02-04T12:03:12;6.57;;;2.60;;
24157;SDS011;12316;50.904;4.200;2024-02-04T12:05:38;6.70;;;2.83;;
24157;SDS011;12316;50.904;4.200;2024-02-04T12:08:04;6.65;;;2.88;;
24157;SDS011;12316;50.904;4.200;2024-02-04T12:10:32;6.38;;;2.83;;
24157;SDS011;12316;50.904;4.200;2024-02-04T12:12:59;5.70;;;2.88;;
24157;SDS011;12316;50.904;4.200;2024-02-04T12:15:27;7.13;;;3.35;;
24157;SDS011;12316;50.904;4.200;2024-02-04T12:17:54;9.70;;;3.35;;
24157;SDS011;12316;50.904;4.200;2024-02-04T12:20:20;10.55;;;3.22;;
24157;SDS011;12316;50.904;4.200;2024-02-04T12:22:46;4.53;;;2.95;;
24157;SDS011;12316;50.904;4.200;2024-02-04T12:25:13;5.30;;;2.55;;
24157;SDS011;12316;50.904;4.200;2024-02-04T12:27:39;7.55;;;3.03;;
24157;SDS011;12316;50.904;4.200;2024-02-04T12:30:05;8.52;;;3.10;;
24157;SDS011;12316;50.904;4.200;2024-02-04T12:32:32;9.55;;;3.17;;
24157;SDS011;12316;50.904;4.200;2024-02-04T12:34:58;6.75;;;2.95;;
24157;SDS011;12316;50.904;4.200;2024-02-04T12:37:23;7.88;;;3.00;;
24157;SDS011;12316;50.904;4.200;2024-02-04T12:39:51;7.50;;;2.80;;
24157;SDS011;12316;50.904;4.200;2024-02-04T12:42:17;5.85;;;2.80;;
24157;SDS011;12316;50.904;4.200;2024-02-04T12:44:45;4.68;;;2.65;;
24157;SDS011;12316;50.904;4.200;2024-02-04T12:47:14;4.03;;;2.47;;
24157;SDS011;12316;50.904;4.200;2024-02-04T12:49:43;8.45;;;2.80;;
24157;SDS011;12316;50.904;4.200;2024-02-04T12:52:09;6.50;;;2.60;;
24157;SDS011;12316;50.904;4.200;2024-02-04T12:54:44;6.93;;;2.20;;
24157;SDS011;12316;50.904;4.200;2024-02-04T12:57:10;5.40;;;2.50;;
24157;SDS011;12316;50.904;4.200;2024-02-04T12:59:47;4.38;;;2.50;;
24157;SDS011;12316;50.904;4.200;2024-02-04T13:02:13;7.18;;;2.42;;
24157;SDS011;12316;50.904;4.200;2024-02-04T13:04:40;6.40;;;2.40;;
24157;SDS011;12316;50.904;4.200;2024-02-04T13:07:10;5.60;;;2.28;;
24157;SDS011;12316;50.904;4.200;2024-02-04T13:09:42;5.05;;;2.20;;
24157;SDS011;12316;50.904;4.200;2024-02-04T13:12:10;5.60;;;2.70;;
24157;SDS011;12316;50.904;4.200;2024-02-04T13:14:39;5.45;;;2.60;;
24157;SDS011;12316;50.904;4.200;2024-02-04T13:17:06;4.40;;;2.47;;
24157;SDS011;12316;50.904;4.200;2024-02-04T13:19:35;4.80;;;2.20;;
24157;SDS011;12316;50.904;4.200;2024-02-04T13:22:02;5.30;;;2.20;;
24157;SDS011;12316;50.904;4.200;2024-02-04T13:24:29;4.50;;;2.33;;
24157;SDS011;12316;50.904;4.200;2024-02-04T13:26:56;6.55;;;2.58;;
24157;SDS011;12316;50.904;4.200;2024-02-04T13:29:22;7.68;;;2.45;;
24157;SDS011;12316;50.904;4.200;2024-02-04T13:31:48;5.80;;;2.50;;
24157;SDS011;12316;50.904;4.200;2024-02-04T13:34:13;4.05;;;2.45;;
24157;SDS011;12316;50.904;4.200;2024-02-04T13:36:40;5.05;;;2.50;;
24157;SDS011;12316;50.904;4.200;2024-02-04T13:39:05;5.15;;;2.67;;
24157;SDS011;12316;50.904;4.200;2024-02-04T13:41:31;4.93;;;2.92;;
24157;SDS011;12316;50.904;4.200;2024-02-04T13:43:57;5.10;;;2.97;;
24157;SDS011;12316;50.904;4.200;2024-02-04T13:46:23;4.00;;;2.88;;
24157;SDS011;12316;50.904;4.200;2024-02-04T13:48:49;6.00;;;2.72;;
24157;SDS011;12316;50.904;4.200;2024-02-04T13:51:14;5.80;;;3.22;;
24157;SDS011;12316;50.904;4.200;2024-02-04T13:53:40;5.78;;;3.40;;
24157;SDS011;12316;50.904;4.200;2024-02-04T13:56:06;9.40;;;3.92;;
24157;SDS011;12316;50.904;4.200;2024-02-04T13:58:31;5.53;;;3.53;;
24157;SDS011;12316;50.904;4.200;2024-02-04T14:00:57;6.35;;;3.28;;
24157;SDS011;12316;50.904;4.200;2024-02-04T14:03:24;6.68;;;3.40;;
24157;SDS011;12316;50.904;4.200;2024-02-04T14:05:50;5.65;;;3.17;;
24157;SDS011;12316;50.904;4.200;2024-02-04T14:08:16;8.27;;;3.45;;
24157;SDS011;12316;50.904;4.200;2024-02-04T14:10:41;6.25;;;3.30;;
24157;SDS011;12316;50.904;4.200;2024-02-04T14:13:07;9.65;;;3.50;;
24157;SDS011;12316;50.904;4.200;2024-02-04T14:15:33;6.65;;;3.38;;
24157;SDS011;12316;50.904;4.200;2024-02-04T14:17:59;7.57;;;3.60;;
24157;SDS011;12316;50.904;4.200;2024-02-04T14:20:25;9.02;;;3.53;;
24157;SDS011;12316;50.904;4.200;2024-02-04T14:22:51;5.75;;;3.60;;
24157;SDS011;12316;50.904;4.200;2024-02-04T14:25:17;7.57;;;3.58;;
24157;SDS011;12316;50.904;4.200;2024-02-04T14:27:44;10.25;;;4.05;;
24157;SDS011;12316;50.904;4.200;2024-02-04T14:30:10;6.05;;;3.60;;
24157;SDS011;12316;50.904;4.200;2024-02-04T14:32:36;11.90;;;3.75;;
24157;SDS011;12316;50.904;4.200;2024-02-04T14:35:02;9.38;;;3.50;;
24157;SDS011;12316;50.904;4.200;2024-02-04T14:37:29;8.52;;;3.83;;
24157;SDS011;12316;50.904;4.200;2024-02-04T14:39:57;12.95;;;4.28;;
24157;SDS011;12316;50.904;4.200;2024-02-04T14:42:25;11.70;;;4.03;;
24157;SDS011;12316;50.904;4.200;2024-02-04T14:44:52;12.05;;;3.55;;